createdAt,value
2018-12-13T00:00:46.898Z,-6.71
2018-12-13T00:01:46.902Z,-6.77
2018-12-13T00:02:46.896Z,-6.69
2018-12-13T00:03:46.898Z,-6.80
2018-12-13T00:04:46.920Z,-6.77
2018-12-13T00:05:46.908Z,-6.80
2018-12-13T00:06:46.905Z,-6.73
2018-12-13T00:07:46.905Z,-6.82
2018-12-13T00:08:46.913Z,-6.80
2018-12-13T00:09:46.911Z,-6.86
2018-12-13T00:10:46.913Z,-6.84
2018-12-13T00:11:46.912Z,-6.97
2018-12-13T00:12:46.913Z,-7.00
2018-12-13T00:13:46.915Z,-6.92
2018-12-13T00:14:46.924Z,-7.02
2018-12-13T00:15:46.918Z,-7.01
2018-12-13T00:16:46.925Z,-7.02
2018-12-13T00:17:46.925Z,-7.00
2018-12-13T00:18:46.929Z,-7.05
2018-12-13T00:19:46.928Z,-7.00
2018-12-13T00:20:46.929Z,-7.00
2018-12-13T00:21:46.929Z,-6.95
2018-12-13T00:22:46.933Z,-7.02
2018-12-13T00:23:46.929Z,-7.07
2018-12-13T00:24:46.936Z,-7.02
2018-12-13T00:25:46.934Z,-7.01
2018-12-13T00:26:46.940Z,-7.07
2018-12-13T00:27:46.940Z,-7.00
2018-12-13T00:28:46.940Z,-6.98
2018-12-13T00:29:46.945Z,-6.95
2018-12-13T00:30:46.950Z,-6.98
2018-12-13T00:31:46.943Z,-7.00
2018-12-13T00:32:46.947Z,-7.02
2018-12-13T00:33:46.949Z,-7.08
2018-12-13T00:34:46.947Z,-7.04
2018-12-13T00:35:46.956Z,-6.98
2018-12-13T00:36:46.958Z,-6.92
2018-12-13T00:37:46.953Z,-7.07
2018-12-13T00:38:46.955Z,-7.00
2018-12-13T00:39:46.959Z,-7.02
2018-12-13T00:40:46.957Z,-7.07
2018-12-13T00:41:46.970Z,-7.00
2018-12-13T00:42:46.965Z,-7.01
2018-12-13T00:43:46.963Z,-7.02
2018-12-13T00:44:46.966Z,-6.97
2018-12-13T00:45:46.966Z,-6.98
2018-12-13T00:46:46.967Z,-7.02
2018-12-13T00:47:46.971Z,-7.07
2018-12-13T00:48:46.970Z,-6.92
2018-12-13T00:49:46.974Z,-7.07
2018-12-13T00:50:46.978Z,-7.07
2018-12-13T00:51:46.975Z,-7.08
2018-12-13T00:52:46.976Z,-7.07
2018-12-13T00:53:46.977Z,-7.07
2018-12-13T00:54:46.979Z,-7.05
2018-12-13T00:55:46.980Z,-7.11
2018-12-13T00:56:46.981Z,-7.13
2018-12-13T00:57:46.985Z,-7.15
2018-12-13T00:58:47.063Z,-7.16
2018-12-13T00:59:46.993Z,-7.21
2018-12-13T01:00:46.989Z,-7.13
2018-12-13T01:01:46.992Z,-7.22
2018-12-13T01:02:46.990Z,-7.13
2018-12-13T01:03:46.992Z,-7.13
2018-12-13T01:04:46.998Z,-7.15
2018-12-13T01:05:46.998Z,-7.07
2018-12-13T01:06:46.996Z,-7.08
2018-12-13T01:07:47.003Z,-7.08
2018-12-13T01:08:46.999Z,-7.18
2018-12-13T01:09:47.000Z,-7.16
2018-12-13T01:10:47.005Z,-7.08
2018-12-13T01:11:47.009Z,-7.02
2018-12-13T01:12:47.005Z,-7.04
2018-12-13T01:13:47.004Z,-7.05
2018-12-13T01:14:47.008Z,-7.08
2018-12-13T01:15:47.007Z,-7.11
2018-12-13T01:16:47.011Z,-7.08
2018-12-13T01:17:47.016Z,-7.15
2018-12-13T01:18:47.014Z,-7.12
2018-12-13T01:19:47.013Z,-7.11
2018-12-13T01:20:47.017Z,-7.21
2018-12-13T01:21:47.019Z,-7.08
2018-12-13T01:22:47.018Z,-7.15
2018-12-13T01:23:47.021Z,-7.13
2018-12-13T01:24:47.021Z,-7.13
2018-12-13T01:25:47.024Z,-7.21
2018-12-13T01:26:47.023Z,-7.15
2018-12-13T01:27:47.028Z,-7.11
2018-12-13T01:28:47.025Z,-7.18
2018-12-13T01:29:47.027Z,-7.11
2018-12-13T01:30:47.029Z,-7.23
2018-12-13T01:31:47.031Z,-7.15
2018-12-13T01:32:47.033Z,-7.18
2018-12-13T01:33:47.041Z,-7.13
2018-12-13T01:34:47.033Z,-7.07
2018-12-13T01:35:47.036Z,-7.21
2018-12-13T01:36:52.385Z,-7.19
2018-12-13T01:37:47.038Z,-7.13
2018-12-13T01:38:47.039Z,-7.16
2018-12-13T01:39:47.042Z,-7.22
2018-12-13T01:40:47.042Z,-7.23
2018-12-13T01:41:47.046Z,-7.25
2018-12-13T01:42:47.047Z,-7.11
2018-12-13T01:43:47.048Z,-7.19
2018-12-13T01:44:47.047Z,-7.19
2018-12-13T01:45:47.051Z,-7.22
2018-12-13T01:46:47.051Z,-7.21
2018-12-13T01:47:47.051Z,-7.19
2018-12-13T01:48:47.054Z,-7.15
2018-12-13T01:49:47.055Z,-7.23
2018-12-13T01:50:47.056Z,-7.23
2018-12-13T01:51:47.054Z,-7.12
2018-12-13T01:52:47.063Z,-7.19
2018-12-13T01:53:47.061Z,-7.23
2018-12-13T01:54:47.061Z,-7.15
2018-12-13T01:55:47.061Z,-7.21
2018-12-13T01:56:47.062Z,-7.23
2018-12-13T01:57:47.074Z,-7.21
2018-12-13T01:58:47.065Z,-7.22
2018-12-13T01:59:47.067Z,-7.30
2018-12-13T02:00:47.066Z,-7.33
2018-12-13T02:01:47.071Z,-7.23
2018-12-13T02:02:47.070Z,-7.29
2018-12-13T02:03:47.073Z,-7.34
2018-12-13T02:04:47.071Z,-7.41
2018-12-13T02:05:47.074Z,-7.39
2018-12-13T02:06:47.073Z,-7.37
2018-12-13T02:07:47.078Z,-7.34
2018-12-13T02:08:47.075Z,-7.41
2018-12-13T02:09:47.082Z,-7.40
2018-12-13T02:10:47.084Z,-7.41
2018-12-13T02:11:47.081Z,-7.40
2018-12-13T02:12:47.083Z,-7.48
2018-12-13T02:13:47.087Z,-7.40
2018-12-13T02:14:47.084Z,-7.43
2018-12-13T02:15:47.085Z,-7.41
2018-12-13T02:16:47.084Z,-7.46
2018-12-13T02:17:47.086Z,-7.39
2018-12-13T02:18:47.090Z,-7.46
2018-12-13T02:19:47.091Z,-7.39
2018-12-13T02:20:47.087Z,-7.44
2018-12-13T02:21:47.091Z,-7.46
2018-12-13T02:22:47.091Z,-7.44
2018-12-13T02:23:47.093Z,-7.48
2018-12-13T02:24:47.094Z,-7.41
2018-12-13T02:25:47.095Z,-7.46
2018-12-13T02:26:47.098Z,-7.39
2018-12-13T02:27:47.099Z,-7.39
2018-12-13T02:28:47.097Z,-7.50
2018-12-13T02:29:47.098Z,-7.43
2018-12-13T02:30:47.101Z,-7.39
2018-12-13T02:31:47.103Z,-7.36
2018-12-13T02:32:47.102Z,-7.41
2018-12-13T02:33:47.103Z,-7.31
2018-12-13T02:34:47.111Z,-7.37
2018-12-13T02:35:47.107Z,-7.37
2018-12-13T02:36:47.120Z,-7.37
2018-12-13T02:37:47.107Z,-7.36
2018-12-13T02:38:47.106Z,-7.29
2018-12-13T02:39:47.108Z,-7.25
2018-12-13T02:40:47.113Z,-7.29
2018-12-13T02:41:47.111Z,-7.34
2018-12-13T02:42:47.120Z,-7.31
2018-12-13T02:43:47.111Z,-7.30
2018-12-13T02:44:47.119Z,-7.37
2018-12-13T02:45:47.113Z,-7.39
2018-12-13T02:46:47.179Z,-7.40
2018-12-13T02:47:47.117Z,-7.39
2018-12-13T02:48:47.116Z,-7.37
2018-12-13T02:49:47.120Z,-7.43
2018-12-13T02:50:47.118Z,-7.40
2018-12-13T02:51:47.119Z,-7.40
2018-12-13T02:52:47.120Z,-7.34
2018-12-13T02:53:47.122Z,-7.40
2018-12-13T02:54:47.121Z,-7.37
2018-12-13T02:55:47.123Z,-7.44
2018-12-13T02:56:47.123Z,-7.41
2018-12-13T02:57:47.131Z,-7.50
2018-12-13T02:58:47.127Z,-7.43
2018-12-13T02:59:47.131Z,-7.51
2018-12-13T03:00:47.128Z,-7.52
2018-12-13T03:01:47.129Z,-7.58
2018-12-13T03:02:47.225Z,-7.54
2018-12-13T03:03:47.130Z,-7.55
2018-12-13T03:04:47.131Z,-7.50
2018-12-13T03:05:47.134Z,-7.60
2018-12-13T03:06:47.136Z,-7.50
2018-12-13T03:07:47.135Z,-7.50
2018-12-13T03:08:47.138Z,-7.43
2018-12-13T03:09:47.136Z,-7.41
2018-12-13T03:10:47.137Z,-7.50
2018-12-13T03:11:47.140Z,-7.43
2018-12-13T03:12:47.141Z,-7.44
2018-12-13T03:13:47.144Z,-7.40
2018-12-13T03:14:47.141Z,-7.43
2018-12-13T03:15:47.141Z,-7.44
2018-12-13T03:16:47.143Z,-7.51
2018-12-13T03:17:47.144Z,-7.46
2018-12-13T03:18:47.153Z,-7.51
2018-12-13T03:19:47.148Z,-7.46
2018-12-13T03:20:47.148Z,-7.54
2018-12-13T03:21:47.159Z,-7.61
2018-12-13T03:22:47.148Z,-7.44
2018-12-13T03:23:47.158Z,-7.52
2018-12-13T03:24:47.153Z,-7.57
2018-12-13T03:25:47.150Z,-7.57
2018-12-13T03:26:47.152Z,-7.62
2018-12-13T03:27:47.154Z,-7.58
2018-12-13T03:28:47.152Z,-7.64
2018-12-13T03:29:47.155Z,-7.71
2018-12-13T03:30:47.159Z,-7.60
2018-12-13T03:31:47.169Z,-7.72
2018-12-13T03:32:47.166Z,-7.69
2018-12-13T03:33:47.159Z,-7.66
2018-12-13T03:34:47.159Z,-7.69
2018-12-13T03:35:47.157Z,-7.68
2018-12-13T03:36:47.163Z,-7.69
2018-12-13T03:37:47.158Z,-7.69
2018-12-13T03:38:47.160Z,-7.71
2018-12-13T03:39:47.164Z,-7.66
2018-12-13T03:40:47.162Z,-7.69
2018-12-13T03:41:47.168Z,-7.66
2018-12-13T03:42:47.263Z,-7.64
2018-12-13T03:43:47.178Z,-7.64
2018-12-13T03:44:47.168Z,-7.69
2018-12-13T03:45:47.167Z,-7.58
2018-12-13T03:46:47.167Z,-7.71
2018-12-13T03:47:47.166Z,-7.61
2018-12-13T03:48:47.171Z,-7.69
2018-12-13T03:49:47.177Z,-7.73
2018-12-13T03:50:47.170Z,-7.69
2018-12-13T03:51:47.173Z,-7.64
2018-12-13T03:52:47.171Z,-7.66
2018-12-13T03:53:47.174Z,-7.69
2018-12-13T03:54:47.175Z,-7.64
2018-12-13T03:55:47.173Z,-7.72
2018-12-13T03:56:47.174Z,-7.69
2018-12-13T03:57:47.175Z,-7.66
2018-12-13T03:58:47.180Z,-7.66
2018-12-13T03:59:47.179Z,-7.72
2018-12-13T04:00:47.178Z,-7.66
2018-12-13T04:01:47.179Z,-7.73
2018-12-13T04:02:47.180Z,-7.66
2018-12-13T04:03:47.197Z,-7.68
2018-12-13T04:04:47.179Z,-7.71
2018-12-13T04:05:47.189Z,-7.69
2018-12-13T04:06:47.181Z,-7.64
2018-12-13T04:07:47.184Z,-7.66
2018-12-13T04:08:47.186Z,-7.72
2018-12-13T04:09:47.251Z,-7.64
2018-12-13T04:10:47.188Z,-7.69
2018-12-13T04:11:47.186Z,-7.75
2018-12-13T04:12:47.193Z,-7.71
2018-12-13T04:13:47.193Z,-7.62
2018-12-13T04:14:47.186Z,-7.78
2018-12-13T04:15:47.187Z,-7.66
2018-12-13T04:16:47.190Z,-7.78
2018-12-13T04:17:47.200Z,-7.79
2018-12-13T04:18:47.193Z,-7.75
2018-12-13T04:19:47.194Z,-7.66
2018-12-13T04:20:47.190Z,-7.71
2018-12-13T04:21:47.191Z,-7.71
2018-12-13T04:22:47.193Z,-7.68
2018-12-13T04:23:47.191Z,-7.68
2018-12-13T04:24:47.197Z,-7.68
2018-12-13T04:25:47.197Z,-7.68
2018-12-13T04:26:47.196Z,-7.78
2018-12-13T04:27:47.195Z,-7.72
2018-12-13T04:28:47.196Z,-7.79
2018-12-13T04:29:47.196Z,-7.76
2018-12-13T04:30:47.203Z,-7.76
2018-12-13T04:31:47.195Z,-7.76
2018-12-13T04:32:47.196Z,-7.76
2018-12-13T04:33:47.200Z,-7.73
2018-12-13T04:34:47.204Z,-7.83
2018-12-13T04:35:47.207Z,-7.80
2018-12-13T04:36:47.211Z,-7.79
2018-12-13T04:37:47.200Z,-7.76
2018-12-13T04:38:47.202Z,-7.73
2018-12-13T04:39:47.204Z,-7.76
2018-12-13T04:40:47.204Z,-7.75
2018-12-13T04:41:47.212Z,-7.78
2018-12-13T04:42:47.204Z,-7.80
2018-12-13T04:43:47.204Z,-7.75
2018-12-13T04:44:47.205Z,-7.78
2018-12-13T04:45:47.207Z,-7.79
2018-12-13T04:46:47.205Z,-7.73
2018-12-13T04:47:47.213Z,-7.72
2018-12-13T04:48:47.211Z,-7.82
2018-12-13T04:49:47.207Z,-7.75
2018-12-13T04:50:47.208Z,-7.80
2018-12-13T04:51:47.212Z,-7.87
2018-12-13T04:52:47.209Z,-7.90
2018-12-13T04:53:47.208Z,-7.80
2018-12-13T04:54:47.211Z,-7.91
2018-12-13T04:55:47.210Z,-7.83
2018-12-13T04:56:47.215Z,-7.93
2018-12-13T04:57:47.213Z,-7.94
2018-12-13T04:58:47.218Z,-7.96
2018-12-13T04:59:47.215Z,-7.96
2018-12-13T05:00:47.214Z,-7.83
2018-12-13T05:01:47.213Z,-7.93
2018-12-13T05:02:47.214Z,-7.94
2018-12-13T05:03:47.217Z,-7.99
2018-12-13T05:04:47.216Z,-7.99
2018-12-13T05:05:47.217Z,-7.87
2018-12-13T05:06:47.917Z,-7.99
2018-12-13T05:07:47.222Z,-7.99
2018-12-13T05:08:47.223Z,-7.96
2018-12-13T05:09:47.225Z,-7.99
2018-12-13T05:10:47.223Z,-8.02
2018-12-13T05:11:47.219Z,-7.94
2018-12-13T05:12:47.221Z,-7.96
2018-12-13T05:13:47.221Z,-8.01
2018-12-13T05:14:47.225Z,-7.96
2018-12-13T05:15:47.222Z,-7.99
2018-12-13T05:16:47.223Z,-8.01
2018-12-13T05:17:47.228Z,-8.01
2018-12-13T05:18:47.224Z,-8.05
2018-12-13T05:19:47.224Z,-7.97
2018-12-13T05:20:47.224Z,-8.01
2018-12-13T05:21:47.225Z,-8.08
2018-12-13T05:22:47.226Z,-7.99
2018-12-13T05:23:47.227Z,-8.01
2018-12-13T05:24:47.227Z,-8.06
2018-12-13T05:25:47.226Z,-8.08
2018-12-13T05:26:47.240Z,-8.06
2018-12-13T05:27:47.227Z,-8.06
2018-12-13T05:28:47.228Z,-8.06
2018-12-13T05:29:47.229Z,-8.05
2018-12-13T05:30:47.231Z,-8.06
2018-12-13T05:31:47.231Z,-8.08
2018-12-13T05:32:47.229Z,-8.06
2018-12-13T05:33:47.234Z,-7.97
2018-12-13T05:34:47.236Z,-8.01
2018-12-13T05:35:47.230Z,-8.06
2018-12-13T05:36:47.231Z,-7.99
2018-12-13T05:37:48.327Z,-7.96
2018-12-13T05:38:47.234Z,-8.05
2018-12-13T05:39:47.235Z,-7.96
2018-12-13T05:40:47.235Z,-7.94
2018-12-13T05:41:47.234Z,-7.94
2018-12-13T05:42:47.236Z,-7.94
2018-12-13T05:43:47.235Z,-7.99
2018-12-13T05:44:47.237Z,-7.97
2018-12-13T05:45:47.235Z,-8.01
2018-12-13T05:46:47.238Z,-8.06
2018-12-13T05:47:47.236Z,-8.02
2018-12-13T05:48:47.237Z,-8.01
2018-12-13T05:49:47.237Z,-8.06
2018-12-13T05:50:47.237Z,-8.09
2018-12-13T05:51:47.237Z,-8.11
2018-12-13T05:52:47.237Z,-8.13
2018-12-13T05:53:47.243Z,-8.11
2018-12-13T05:54:47.243Z,-8.08
2018-12-13T05:55:47.251Z,-8.11
2018-12-13T05:56:47.239Z,-8.11
2018-12-13T05:57:47.241Z,-8.13
2018-12-13T05:58:47.244Z,-8.18
2018-12-13T05:59:47.238Z,-8.13
2018-12-13T06:00:47.241Z,-8.15
2018-12-13T06:01:47.245Z,-8.27
2018-12-13T06:02:47.239Z,-8.13
2018-12-13T06:03:47.255Z,-8.23
2018-12-13T06:04:47.241Z,-8.26
2018-12-13T06:05:47.242Z,-8.15
2018-12-13T06:06:47.946Z,-8.21
2018-12-13T06:07:47.241Z,-8.19
2018-12-13T06:08:47.244Z,-8.21
2018-12-13T06:09:47.241Z,-8.21
2018-12-13T06:10:47.241Z,-8.24
2018-12-13T06:11:47.241Z,-8.29
2018-12-13T06:12:47.241Z,-8.19
2018-12-13T06:13:47.244Z,-8.27
2018-12-13T06:14:47.245Z,-8.21
2018-12-13T06:15:47.241Z,-8.19
2018-12-13T06:16:47.243Z,-8.16
2018-12-13T06:17:47.242Z,-8.16
2018-12-13T06:18:47.242Z,-8.13
2018-12-13T06:19:47.241Z,-8.11
2018-12-13T06:20:47.243Z,-8.15
2018-12-13T06:21:47.241Z,-8.12
2018-12-13T06:22:47.242Z,-8.12
2018-12-13T06:23:47.242Z,-8.15
2018-12-13T06:24:47.241Z,-8.13
2018-12-13T06:25:47.243Z,-8.15
2018-12-13T06:26:47.245Z,-8.24
2018-12-13T06:27:47.245Z,-8.23
2018-12-13T06:28:47.242Z,-8.21
2018-12-13T06:29:48.975Z,-8.24
2018-12-13T06:30:47.243Z,-8.27
2018-12-13T06:31:47.245Z,-8.27
2018-12-13T06:32:47.244Z,-8.30
2018-12-13T06:33:47.248Z,-8.30
2018-12-13T06:34:47.246Z,-8.26
2018-12-13T06:35:47.244Z,-8.26
2018-12-13T06:36:47.243Z,-8.26
2018-12-13T06:37:47.243Z,-8.30
2018-12-13T06:38:47.247Z,-8.34
2018-12-13T06:39:47.244Z,-8.40
2018-12-13T06:40:47.243Z,-8.33
2018-12-13T06:41:47.244Z,-8.44
2018-12-13T06:42:47.247Z,-8.37
2018-12-13T06:43:47.243Z,-8.37
2018-12-13T06:44:47.242Z,-8.44
2018-12-13T06:45:47.247Z,-8.36
2018-12-13T06:46:47.244Z,-8.44
2018-12-13T06:47:47.243Z,-8.37
2018-12-13T06:48:47.247Z,-8.45
2018-12-13T06:49:47.245Z,-8.44
2018-12-13T06:50:47.245Z,-8.36
2018-12-13T06:51:47.246Z,-8.31
2018-12-13T06:52:47.245Z,-8.31
2018-12-13T06:53:47.246Z,-8.36
2018-12-13T06:54:47.244Z,-8.27
2018-12-13T06:55:47.242Z,-8.42
2018-12-13T06:56:47.247Z,-8.34
2018-12-13T06:57:47.248Z,-8.33
2018-12-13T06:58:47.244Z,-8.37
2018-12-13T06:59:47.247Z,-8.37
2018-12-13T07:00:47.248Z,-8.30
2018-12-13T07:01:47.245Z,-8.31
2018-12-13T07:02:47.245Z,-8.27
2018-12-13T07:03:47.247Z,-8.23
2018-12-13T07:04:47.253Z,-8.24
2018-12-13T07:05:47.245Z,-8.31
2018-12-13T07:06:47.243Z,-8.27
2018-12-13T07:07:47.247Z,-8.26
2018-12-13T07:08:47.245Z,-8.26
2018-12-13T07:09:47.247Z,-8.29
2018-12-13T07:10:47.246Z,-8.24
2018-12-13T07:11:47.246Z,-8.29
2018-12-13T07:12:47.249Z,-8.27
2018-12-13T07:13:47.247Z,-8.33
2018-12-13T07:14:47.246Z,-8.30
2018-12-13T07:15:47.245Z,-8.31
2018-12-13T07:16:47.246Z,-8.33
2018-12-13T07:17:47.245Z,-8.31
2018-12-13T07:18:47.248Z,-8.33
2018-12-13T07:19:47.247Z,-8.26
2018-12-13T07:20:47.252Z,-8.30
2018-12-13T07:21:47.248Z,-8.27
2018-12-13T07:22:47.249Z,-8.24
2018-12-13T07:23:47.248Z,-8.24
2018-12-13T07:24:47.249Z,-8.23
2018-12-13T07:25:47.248Z,-8.23
2018-12-13T07:26:47.247Z,-8.24
2018-12-13T07:27:47.254Z,-8.23
2018-12-13T07:28:47.250Z,-8.13
2018-12-13T07:29:47.253Z,-8.18
2018-12-13T07:30:47.252Z,-8.15
2018-12-13T07:31:47.249Z,-8.19
2018-12-13T07:32:47.255Z,-8.23
2018-12-13T07:33:47.250Z,-8.19
2018-12-13T07:34:47.253Z,-8.15
2018-12-13T07:35:47.254Z,-8.18
2018-12-13T07:36:47.254Z,-8.27
2018-12-13T07:37:47.253Z,-8.19
2018-12-13T07:38:47.251Z,-8.13
2018-12-13T07:39:47.252Z,-8.13
2018-12-13T07:40:47.252Z,-8.18
2018-12-13T07:41:47.251Z,-8.15
2018-12-13T07:42:47.251Z,-8.23
2018-12-13T07:43:47.254Z,-8.12
2018-12-13T07:44:47.251Z,-8.13
2018-12-13T07:45:47.257Z,-8.16
2018-12-13T07:46:47.257Z,-8.13
2018-12-13T07:47:47.261Z,-8.15
2018-12-13T07:48:47.253Z,-8.16
2018-12-13T07:49:47.255Z,-8.15
2018-12-13T07:50:47.258Z,-8.12
2018-12-13T07:51:47.254Z,-8.08
2018-12-13T07:52:47.253Z,-8.08
2018-12-13T07:53:47.259Z,-8.02
2018-12-13T07:54:47.262Z,-8.06
2018-12-13T07:55:47.256Z,-8.05
2018-12-13T07:56:47.256Z,-8.01
2018-12-13T07:57:47.255Z,-8.02
2018-12-13T07:58:47.255Z,-7.97
2018-12-13T07:59:47.257Z,-7.93
2018-12-13T08:00:47.256Z,-7.91
2018-12-13T08:01:47.260Z,-7.96
2018-12-13T08:02:47.261Z,-7.94
2018-12-13T08:03:47.258Z,-7.94
2018-12-13T08:04:47.259Z,-7.93
2018-12-13T08:05:47.259Z,-7.91
2018-12-13T08:06:47.261Z,-7.97
2018-12-13T08:07:47.261Z,-7.90
2018-12-13T08:08:47.260Z,-7.82
2018-12-13T08:09:47.260Z,-7.87
2018-12-13T08:10:47.260Z,-7.82
2018-12-13T08:11:47.263Z,-7.76
2018-12-13T08:12:47.261Z,-7.80
2018-12-13T08:13:47.264Z,-7.82
2018-12-13T08:14:47.263Z,-7.71
2018-12-13T08:15:47.264Z,-7.80
2018-12-13T08:16:47.266Z,-7.75
2018-12-13T08:17:47.267Z,-7.75
2018-12-13T08:18:47.264Z,-7.76
2018-12-13T08:19:47.265Z,-7.80
2018-12-13T08:20:47.267Z,-7.83
2018-12-13T08:21:47.266Z,-7.78
2018-12-13T08:22:47.268Z,-7.78
2018-12-13T08:23:47.269Z,-7.80
2018-12-13T08:24:47.266Z,-7.76
2018-12-13T08:25:47.270Z,-7.82
2018-12-13T08:26:47.268Z,-7.79
2018-12-13T08:27:47.267Z,-7.80
2018-12-13T08:28:47.269Z,-7.62
2018-12-13T08:29:47.270Z,-7.73
2018-12-13T08:30:47.271Z,-7.73
2018-12-13T08:31:47.270Z,-7.66
2018-12-13T08:32:47.271Z,-7.62
2018-12-13T08:33:47.273Z,-7.44
2018-12-13T08:34:47.272Z,-7.26
2018-12-13T08:35:47.273Z,-7.05
2018-12-13T08:36:47.283Z,-6.97
2018-12-13T08:37:47.275Z,-6.61
2018-12-13T08:38:47.274Z,-6.42
2018-12-13T08:39:47.276Z,-6.32
2018-12-13T08:40:47.275Z,-6.03
2018-12-13T08:41:47.280Z,-5.86
2018-12-13T08:42:47.281Z,-5.66
2018-12-13T08:43:47.280Z,-5.54
2018-12-13T08:44:47.283Z,-5.41
2018-12-13T08:45:47.285Z,-5.25
2018-12-13T08:46:47.288Z,-5.10
2018-12-13T08:47:47.293Z,-4.93
2018-12-13T08:48:47.290Z,-4.77
2018-12-13T08:49:47.297Z,-4.61
2018-12-13T08:50:47.339Z,-4.40
2018-12-13T08:51:47.303Z,-4.39
2018-12-13T08:52:47.302Z,-4.24
2018-12-13T08:53:47.308Z,-4.21
2018-12-13T08:54:47.315Z,-4.32
2018-12-13T08:55:47.310Z,-4.06
2018-12-13T08:56:47.315Z,-3.83
2018-12-13T08:57:47.316Z,-3.57
2018-12-13T08:58:47.320Z,-3.35
2018-12-13T08:59:47.323Z,-3.10
2018-12-13T09:00:47.330Z,-2.86
2018-12-13T09:01:47.331Z,-2.88
2018-12-13T09:02:47.333Z,-2.85
2018-12-13T09:03:47.337Z,-3.27
2018-12-13T09:04:47.340Z,-3.28
2018-12-13T09:05:47.352Z,-3.59
2018-12-13T09:06:47.348Z,-3.72
2018-12-13T09:07:47.353Z,-3.69
2018-12-13T09:08:47.356Z,-3.76
2018-12-13T09:09:47.360Z,-3.52
2018-12-13T09:10:47.364Z,-3.71
2018-12-13T09:11:47.366Z,-3.78
2018-12-13T09:12:47.371Z,-3.75
2018-12-13T09:13:47.373Z,-3.94
2018-12-13T09:14:47.378Z,-4.20
2018-12-13T09:15:47.384Z,-4.17
2018-12-13T09:16:47.388Z,-4.11
2018-12-13T09:17:47.393Z,-3.91
2018-12-13T09:18:47.395Z,-3.72
2018-12-13T09:19:47.402Z,-3.43
2018-12-13T09:20:47.402Z,-3.60
2018-12-13T09:21:47.406Z,-3.85
2018-12-13T09:22:47.415Z,-3.71
2018-12-13T09:23:47.418Z,-3.66
2018-12-13T09:24:47.415Z,-3.86
2018-12-13T09:25:47.419Z,-3.91
2018-12-13T09:26:47.431Z,-3.91
2018-12-13T09:27:47.429Z,-3.88
2018-12-13T09:28:47.436Z,-3.83
2018-12-13T09:29:47.464Z,-3.85
2018-12-13T09:30:47.443Z,-3.85
2018-12-13T09:31:47.442Z,-3.79
2018-12-13T09:32:47.444Z,-3.72
2018-12-13T09:33:47.450Z,-3.57
2018-12-13T09:34:47.454Z,-3.36
2018-12-13T09:35:47.457Z,-3.45
2018-12-13T09:36:47.463Z,-3.83
2018-12-13T09:37:47.890Z,-3.88
2018-12-13T09:38:47.468Z,-3.57
2018-12-13T09:39:47.476Z,-3.71
2018-12-13T09:40:47.476Z,-3.69
2018-12-13T09:41:47.482Z,-3.45
2018-12-13T09:42:47.485Z,-3.71
2018-12-13T09:43:47.485Z,-3.41
2018-12-13T09:44:47.491Z,-3.21
2018-12-13T09:45:47.501Z,-3.35
2018-12-13T09:46:47.505Z,-3.17
2018-12-13T09:47:47.503Z,-2.85
2018-12-13T09:48:47.511Z,-2.55
2018-12-13T09:49:47.512Z,-2.53
2018-12-13T09:50:47.517Z,-2.15
2018-12-13T09:51:47.519Z,-1.84
2018-12-13T09:52:47.526Z,-1.58
2018-12-13T09:53:47.529Z,-1.88
2018-12-13T09:54:47.533Z,-2.20
2018-12-13T09:55:47.534Z,-1.82
2018-12-13T09:56:47.540Z,-2.24
2018-12-13T09:57:47.545Z,-2.40
2018-12-13T09:58:47.550Z,-1.95
2018-12-13T09:59:47.558Z,-1.58
2018-12-13T10:00:47.565Z,-1.77
2018-12-13T10:01:47.568Z,-1.58
2018-12-13T10:02:47.570Z,-1.43
2018-12-13T10:03:47.573Z,-1.79
2018-12-13T10:04:47.577Z,-2.06
2018-12-13T10:05:47.583Z,-1.79
2018-12-13T10:06:47.589Z,-1.55
2018-12-13T10:07:47.593Z,-1.07
2018-12-13T10:08:47.601Z,-0.86
2018-12-13T10:09:47.608Z,-1.73
2018-12-13T10:10:47.610Z,-2.05
2018-12-13T10:11:47.615Z,-2.02
2018-12-13T10:12:47.623Z,-2.03
2018-12-13T10:13:47.625Z,-1.70
2018-12-13T10:14:47.636Z,-1.31
2018-12-13T10:15:47.638Z,-1.74
2018-12-13T10:16:47.643Z,-1.70
2018-12-13T10:17:47.650Z,-1.87
2018-12-13T10:18:47.654Z,-2.23
2018-12-13T10:19:47.658Z,-1.94
2018-12-13T10:20:47.664Z,-1.94
2018-12-13T10:21:47.670Z,-1.73
2018-12-13T10:22:47.678Z,-1.73
2018-12-13T10:23:47.683Z,-1.97
2018-12-13T10:24:47.691Z,-1.82
2018-12-13T10:25:47.693Z,-1.67
2018-12-13T10:26:47.699Z,-1.34
2018-12-13T10:27:47.705Z,-1.02
2018-12-13T10:28:47.709Z,-1.40
2018-12-13T10:29:47.727Z,-1.33
2018-12-13T10:30:47.723Z,-1.77
2018-12-13T10:31:47.732Z,-1.92
2018-12-13T10:32:47.733Z,-1.80
2018-12-13T10:33:47.742Z,-1.41
2018-12-13T10:34:47.748Z,-1.61
2018-12-13T10:35:47.751Z,-1.54
2018-12-13T10:36:47.758Z,-1.33
2018-12-13T10:37:47.764Z,-1.55
2018-12-13T10:38:53.005Z,-1.59
2018-12-13T10:39:47.776Z,-1.79
2018-12-13T10:40:47.782Z,-1.35
2018-12-13T10:41:47.787Z,-1.52
2018-12-13T10:42:47.793Z,-1.80
2018-12-13T10:43:47.800Z,-2.00
2018-12-13T10:44:47.811Z,-1.33
2018-12-13T10:45:47.817Z,-1.22
2018-12-13T10:46:47.820Z,-1.30
2018-12-13T10:47:47.823Z,-1.19
2018-12-13T10:48:47.830Z,-1.17
2018-12-13T10:49:47.837Z,-0.97
2018-12-13T10:50:47.842Z,-0.52
2018-12-13T10:51:47.850Z,-0.10
2018-12-13T10:52:47.856Z,-0.39
2018-12-13T10:53:47.863Z,-0.42
2018-12-13T10:54:47.871Z,-0.78
2018-12-13T10:55:47.878Z,-1.02
2018-12-13T10:56:47.883Z,-1.05
2018-12-13T10:57:47.892Z,-1.05
2018-12-13T10:58:47.900Z,-1.17
2018-12-13T10:59:47.903Z,-1.10
2018-12-13T11:00:47.910Z,-0.55
2018-12-13T11:01:47.923Z,-0.26
2018-12-13T11:02:47.924Z,-0.73
2018-12-13T11:03:47.931Z,-1.15
2018-12-13T11:04:47.935Z,-1.72
2018-12-13T11:05:47.944Z,-1.69
2018-12-13T11:06:47.949Z,-1.69
2018-12-13T11:07:47.956Z,-1.58
2018-12-13T11:08:47.962Z,-0.97
2018-12-13T11:09:47.980Z,-0.91
2018-12-13T11:10:48.054Z,-0.51
2018-12-13T11:11:47.985Z,-1.38
2018-12-13T11:12:47.992Z,-1.67
2018-12-13T11:13:48.000Z,-2.03
2018-12-13T11:14:48.005Z,-1.22
2018-12-13T11:15:48.011Z,-0.67
2018-12-13T11:16:48.018Z,-0.23
2018-12-13T11:17:48.025Z,-0.40
2018-12-13T11:18:48.032Z,-0.29
2018-12-13T11:19:48.043Z,-0.21
2018-12-13T11:20:48.052Z,-0.01
2018-12-13T11:21:48.055Z,-0.47
2018-12-13T11:22:48.061Z,-0.62
2018-12-13T11:23:48.069Z,-1.37
2018-12-13T11:24:48.074Z,-1.16
2018-12-13T11:25:48.081Z,-0.33
2018-12-13T11:26:48.090Z,0.07
2018-12-13T11:27:48.096Z,0.24
2018-12-13T11:28:48.101Z,-0.34
2018-12-13T11:29:48.109Z,-1.27
2018-12-13T11:30:48.124Z,-0.95
2018-12-13T11:31:48.123Z,-1.56
2018-12-13T11:32:48.131Z,-0.78
2018-12-13T11:33:48.140Z,-0.51
2018-12-13T11:34:48.147Z,-0.33
2018-12-13T11:35:48.152Z,-0.28
2018-12-13T11:36:48.162Z,-0.22
2018-12-13T11:37:48.169Z,-0.37
2018-12-13T11:38:48.175Z,-0.62
2018-12-13T11:39:48.182Z,-1.01
2018-12-13T11:40:48.192Z,-1.07
2018-12-13T11:41:48.199Z,-0.76
2018-12-13T11:42:48.205Z,-0.33
2018-12-13T11:43:48.213Z,-0.23
2018-12-13T11:44:48.224Z,-0.26
2018-12-13T11:45:48.231Z,-0.79
2018-12-13T11:46:48.236Z,-0.72
2018-12-13T11:47:48.246Z,-0.60
2018-12-13T11:48:48.253Z,-1.05
2018-12-13T11:49:48.257Z,-0.52
2018-12-13T11:50:48.268Z,-0.28
2018-12-13T11:51:48.273Z,0.28
2018-12-13T11:52:48.284Z,0.87
2018-12-13T11:53:48.290Z,1.51
2018-12-13T11:54:48.300Z,1.41
2018-12-13T11:55:48.304Z,0.88
2018-12-13T11:56:48.311Z,0.83
2018-12-13T11:57:48.323Z,1.16
2018-12-13T11:58:48.332Z,1.12
2018-12-13T11:59:48.335Z,1.32
2018-12-13T12:00:48.348Z,0.53
2018-12-13T12:01:48.358Z,1.14
2018-12-13T12:02:48.362Z,0.36
2018-12-13T12:03:48.366Z,-0.69
2018-12-13T12:04:48.376Z,-0.51
2018-12-13T12:05:48.387Z,-0.54
2018-12-13T12:06:48.398Z,-1.12
2018-12-13T12:07:48.402Z,-1.12
2018-12-13T12:08:48.410Z,-0.60
2018-12-13T12:09:48.425Z,-0.62
2018-12-13T12:10:48.427Z,-0.47
2018-12-13T12:11:48.436Z,0.00
2018-12-13T12:12:48.443Z,0.60
2018-12-13T12:13:48.457Z,0.47
2018-12-13T12:14:48.460Z,0.72
2018-12-13T12:15:48.468Z,0.50
2018-12-13T12:16:48.476Z,0.10
2018-12-13T12:17:48.485Z,0.29
2018-12-13T12:18:48.492Z,-0.33
2018-12-13T12:19:48.500Z,-0.14
2018-12-13T12:20:48.512Z,-0.73
2018-12-13T12:21:48.519Z,-0.95
2018-12-13T12:22:48.525Z,-0.75
2018-12-13T12:23:48.534Z,-0.47
2018-12-13T12:24:48.541Z,-0.55
2018-12-13T12:25:48.551Z,0.08
2018-12-13T12:26:48.562Z,0.42
2018-12-13T12:27:48.583Z,0.13
2018-12-13T12:28:48.580Z,-0.40
2018-12-13T12:29:48.585Z,-0.51
2018-12-13T12:30:48.594Z,-0.64
2018-12-13T12:31:48.613Z,-0.34
2018-12-13T12:32:48.610Z,-0.57
2018-12-13T12:33:48.621Z,-0.15
2018-12-13T12:34:48.632Z,0.03
2018-12-13T12:35:48.637Z,0.55
2018-12-13T12:36:48.649Z,0.65
2018-12-13T12:37:48.654Z,0.87
2018-12-13T12:38:48.663Z,1.58
2018-12-13T12:39:48.668Z,1.87
2018-12-13T12:40:48.679Z,2.59
2018-12-13T12:41:48.689Z,2.09
2018-12-13T12:42:48.703Z,2.05
2018-12-13T12:43:48.704Z,1.14
2018-12-13T12:44:48.711Z,0.39
2018-12-13T12:45:48.723Z,0.24
2018-12-13T12:46:48.733Z,0.14
2018-12-13T12:47:48.737Z,0.65
2018-12-13T12:48:48.752Z,0.02
2018-12-13T12:49:48.758Z,0.42
2018-12-13T12:50:48.769Z,0.90
2018-12-13T12:51:48.778Z,1.04
2018-12-13T12:52:48.785Z,1.16
2018-12-13T12:53:48.795Z,1.37
2018-12-13T12:54:48.801Z,1.45